Time;durP1;ratioP1;P1;durP2;ratioP2;P2;SDS_P1;SDS_P2;PMS_P1;PMS_P2;Temp;Humidity;BMP_temperature;BMP_pressure;BME280_temperature;BME280_humidity;BME280_pressure;Samples;Min_cycle;Max_cycle;Signal;HPM_P1;HPM_P2
2023/02/08 00:00:50;;;;;;;34.17;22.15;;;19.30;29.70;;;;;;5013978;28;20128;-66
2023/02/08 00:03:17;;;;;;;38.50;23.88;;;19.30;29.70;;;;;;5014247;28;20416;-67
2023/02/08 00:05:44;;;;;;;34.75;22.98;;;19.30;29.70;;;;;;5013789;28;20054;-66
2023/02/08 00:08:11;;;;;;;36.42;23.38;;;19.30;29.70;;;;;;5013504;28;20046;-67
2023/02/08 00:10:39;;;;;;;37.30;23.92;;;19.30;29.70;;;;;;5013468;28;20060;-67
2023/02/08 00:13:06;;;;;;;36.97;22.48;;;19.30;29.70;;;;;;5014404;28;20041;-66
2023/02/08 00:15:33;;;;;;;35.20;22.80;;;19.20;29.70;;;;;;5013866;28;20085;-66
2023/02/08 00:18:01;;;;;;;35.17;22.25;;;19.20;29.70;;;;;;5013449;28;20085;-67
2023/02/08 00:20:28;;;;;;;35.97;23.48;;;19.20;29.70;;;;;;5013486;28;20420;-66
2023/02/08 00:22:55;;;;;;;36.10;22.60;;;19.20;29.70;;;;;;5013530;28;20073;-66
2023/02/08 00:25:22;;;;;;;29.15;20.40;;;19.20;29.70;;;;;;5013191;28;20137;-67
2023/02/08 00:27:50;;;;;;;32.67;22.05;;;19.20;29.70;;;;;;5013227;28;20085;-66
2023/02/08 00:30:17;;;;;;;30.63;21.35;;;19.20;29.70;;;;;;5012868;28;20111;-66
2023/02/08 00:32:44;;;;;;;31.35;20.75;;;19.20;29.60;;;;;;5012935;28;20048;-66
2023/02/08 00:35:11;;;;;;;32.35;20.83;;;19.20;29.70;;;;;;5012810;28;20049;-66
2023/02/08 00:37:38;;;;;;;34.15;22.25;;;19.20;29.60;;;;;;5013116;28;20052;-66
2023/02/08 00:40:06;;;;;;;33.40;21.30;;;19.20;29.60;;;;;;5013468;28;20057;-66
2023/02/08 00:42:33;;;;;;;34.47;22.00;;;19.20;29.70;;;;;;5013574;28;20068;-66
2023/02/08 00:45:01;;;;;;;35.13;21.65;;;19.20;29.60;;;;;;5013233;28;20446;-66
2023/02/08 00:47:28;;;;;;;33.47;21.92;;;19.20;29.60;;;;;;5013611;28;20050;-67
2023/02/08 00:49:55;;;;;;;33.97;20.85;;;19.20;29.60;;;;;;5012865;28;20046;-66
2023/02/08 00:52:22;;;;;;;33.05;21.50;;;19.20;29.60;;;;;;5013345;28;20053;-67
2023/02/08 00:54:49;;;;;;;33.42;21.42;;;19.10;29.60;;;;;;5013455;28;20521;-66
2023/02/08 00:57:16;;;;;;;30.50;19.98;;;19.20;29.60;;;;;;5012719;28;20073;-66
2023/02/08 00:59:43;;;;;;;31.35;20.95;;;19.20;29.60;;;;;;5012604;28;20054;-66
2023/02/08 01:02:11;;;;;;;32.60;19.85;;;19.10;29.60;;;;;;5011776;28;20070;-66
2023/02/08 01:04:38;;;;;;;32.30;20.55;;;19.20;29.70;;;;;;5013086;28;20557;-67
2023/02/08 01:07:05;;;;;;;32.38;20.95;;;19.20;29.60;;;;;;5012390;28;20050;-66
2023/02/08 01:09:34;;;;;;;30.02;19.13;;;19.10;29.60;;;;;;5012788;28;20054;-66
2023/02/08 01:12:01;;;;;;;30.63;19.65;;;19.20;29.60;;;;;;5012772;28;20053;-66
2023/02/08 01:14:28;;;;;;;30.70;19.58;;;19.20;29.60;;;;;;5012719;28;20084;-67
2023/02/08 01:16:56;;;;;;;30.23;20.38;;;19.20;29.60;;;;;;5013414;28;20388;-66
2023/02/08 01:19:23;;;;;;;29.85;20.05;;;19.20;29.60;;;;;;5013204;28;20057;-67
2023/02/08 01:21:50;;;;;;;29.30;20.05;;;19.20;29.60;;;;;;5012779;28;20409;-67
2023/02/08 01:24:17;;;;;;;33.05;20.65;;;19.20;29.60;;;;;;5012529;28;20406;-66
2023/02/08 01:26:44;;;;;;;28.85;19.38;;;19.20;29.50;;;;;;5012734;28;20045;-66
2023/02/08 01:29:11;;;;;;;31.08;19.73;;;19.20;29.50;;;;;;5011577;28;20521;-66
2023/02/08 01:31:40;;;;;;;32.97;20.80;;;19.20;29.50;;;;;;5011960;28;20041;-67
2023/02/08 01:34:08;;;;;;;29.83;19.83;;;19.20;29.50;;;;;;5011236;28;20053;-66
2023/02/08 01:36:37;;;;;;;30.85;20.17;;;19.10;29.40;;;;;;5017556;28;20049;-67
2023/02/08 01:39:05;;;;;;;29.85;19.88;;;19.10;29.40;;;;;;5018656;28;20060;-66
2023/02/08 01:41:39;;;;;;;30.85;19.52;;;19.10;29.40;;;;;;5018949;28;20050;-66
2023/02/08 01:44:43;;;;;;;29.60;19.65;;;19.10;29.40;;;;;;5019135;28;20133;-67
2023/02/08 01:47:10;;;;;;;28.42;19.10;;;19.10;29.40;;;;;;5019326;28;20502;-66
2023/02/08 01:49:38;;;;;;;31.05;19.73;;;19.10;29.40;;;;;;5019359;28;20054;-66
2023/02/08 01:52:16;;;;;;;30.70;20.15;;;19.10;29.40;;;;;;5018114;28;20497;-66
2023/02/08 01:54:51;;;;;;;33.15;21.45;;;19.10;29.50;;;;;;5019641;28;20081;-66
2023/02/08 01:57:20;;;;;;;28.65;19.05;;;19.10;29.40;;;;;;5019072;28;20072;-66
2023/02/08 01:59:52;;;;;;;28.52;19.48;;;19.10;29.50;;;;;;5018971;28;20052;-66
2023/02/08 02:02:22;;;;;;;32.85;19.55;;;19.10;29.50;;;;;;5011023;28;20063;-66
2023/02/08 02:04:50;;;;;;;28.88;19.10;;;19.10;29.50;;;;;;5018782;28;20052;-66
2023/02/08 02:07:19;;;;;;;26.52;18.25;;;19.10;29.40;;;;;;5018957;28;20056;-66
2023/02/08 02:10:07;;;;;;;27.70;18.88;;;19.00;29.40;;;;;;5019439;28;20058;-66
2023/02/08 02:12:37;;;;;;;32.20;19.95;;;19.10;29.40;;;;;;5018821;28;20081;-66
2023/02/08 02:15:06;;;;;;;28.73;19.70;;;19.00;29.40;;;;;;5019087;28;20053;-66
2023/02/08 02:17:34;;;;;;;28.83;18.92;;;19.00;29.40;;;;;;5019385;28;20053;-66
2023/02/08 02:20:33;;;;;;;27.33;18.02;;;19.00;29.40;;;;;;5018296;28;20073;-66
2023/02/08 02:23:38;;;;;;;30.20;19.38;;;19.00;29.40;;;;;;5017950;28;20108;-66
2023/02/08 02:26:43;;;;;;;29.35;19.23;;;19.00;29.40;;;;;;5003718;28;20046;-67
2023/02/08 02:29:50;;;;;;;27.25;18.30;;;19.00;29.40;;;;;;5006653;28;20046;-66
2023/02/08 02:32:56;;;;;;;33.63;19.92;;;19.00;29.40;;;;;;5000775;28;20064;-66
2023/02/08 02:35:35;;;;;;;29.15;18.13;;;19.00;29.40;;;;;;5018355;28;20049;-66
2023/02/08 02:38:32;;;;;;;28.73;18.53;;;19.00;29.40;;;;;;5018744;28;20072;-66
2023/02/08 02:44:34;;;;;;;32.08;18.80;;;19.00;29.40;;;;;;5018291;28;20497;-66
2023/02/08 02:47:31;;;;;;;29.67;19.05;;;19.00;29.40;;;;;;5015674;28;20046;-66
2023/02/08 02:50:09;;;;;;;26.48;18.25;;;19.00;29.40;;;;;;5015178;28;20050;-67
2023/02/08 02:52:58;;;;;;;27.95;18.63;;;19.00;29.40;;;;;;5014851;28;20569;-67
2023/02/08 02:55:28;;;;;;;30.98;18.75;;;19.00;29.40;;;;;;5027615;28;20420;-66
2023/02/08 02:57:58;;;;;;;25.88;17.20;;;19.00;29.40;;;;;;5021920;28;20406;-67
2023/02/08 03:00:27;;;;;;;28.77;18.05;;;19.00;29.30;;;;;;5014774;28;20126;-66
2023/02/08 03:02:55;;;;;;;27.88;16.98;;;19.00;29.30;;;;;;5014274;28;20046;-66
2023/02/08 03:05:22;;;;;;;26.85;17.45;;;19.00;29.30;;;;;;5014913;28;20050;-66
2023/02/08 03:08:11;;;;;;;27.98;17.17;;;19.00;29.30;;;;;;5014756;28;20057;-66
2023/02/08 03:10:54;;;;;;;27.13;17.02;;;19.00;29.30;;;;;;5015090;28;20054;-68
2023/02/08 03:13:51;;;;;;;27.98;17.85;;;19.00;29.30;;;;;;4995443;28;20042;-66
2023/02/08 03:16:40;;;;;;;26.15;17.17;;;19.00;29.30;;;;;;4997787;28;20133;-66
2023/02/08 03:19:29;;;;;;;26.90;17.42;;;19.00;29.30;;;;;;5014291;28;20054;-66
2023/02/08 03:22:13;;;;;;;27.50;17.27;;;19.00;29.30;;;;;;4994492;28;20122;-66
2023/02/08 03:24:52;;;;;;;27.70;16.58;;;19.00;29.30;;;;;;5013728;28;20073;-66
2023/02/08 03:27:58;;;;;;;28.02;17.00;;;19.00;29.30;;;;;;5005921;28;20046;-66
2023/02/08 03:30:37;;;;;;;26.70;17.05;;;19.00;29.30;;;;;;5026983;28;20140;-66
2023/02/08 03:33:20;;;;;;;27.70;17.80;;;19.00;29.20;;;;;;5033953;28;20046;-67
2023/02/08 03:35:58;;;;;;;25.85;16.92;;;19.00;29.20;;;;;;5033833;28;20052;-67
2023/02/08 03:38:32;;;;;;;25.80;16.27;;;18.90;29.10;;;;;;5029145;28;20077;-66
2023/02/08 03:41:03;;;;;;;26.30;17.58;;;19.00;29.20;;;;;;5033684;28;20580;-66
2023/02/08 03:43:43;;;;;;;26.00;17.27;;;19.00;29.20;;;;;;5033723;28;20056;-66
2023/02/08 03:46:23;;;;;;;24.17;16.38;;;19.00;29.20;;;;;;5032910;28;20084;-66
2023/02/08 03:48:57;;;;;;;27.35;17.92;;;18.90;29.10;;;;;;5018457;28;20397;-66
2023/02/08 03:51:26;;;;;;;25.00;16.65;;;19.00;29.10;;;;;;5013877;28;20129;-67
2023/02/08 03:53:56;;;;;;;24.58;15.90;;;18.90;29.10;;;;;;5014222;28;20038;-67
2023/02/08 03:56:37;;;;;;;24.70;16.73;;;18.90;29.10;;;;;;4996797;28;20050;-67
2023/02/08 03:59:11;;;;;;;24.90;16.80;;;19.00;29.10;;;;;;5013398;28;20052;-66
2023/02/08 04:01:45;;;;;;;27.00;17.73;;;18.90;29.10;;;;;;4996231;28;20209;-66
2023/02/08 04:04:14;;;;;;;22.90;15.93;;;18.90;29.10;;;;;;5013432;28;20096;-67
2023/02/08 04:06:41;;;;;;;24.80;16.65;;;18.90;29.10;;;;;;5013408;28;20053;-66
2023/02/08 04:09:08;;;;;;;25.83;17.20;;;18.90;29.10;;;;;;5023432;28;20401;-66
2023/02/08 04:11:35;;;;;;;27.13;16.30;;;18.90;29.10;;;;;;5031975;28;20501;-66
2023/02/08 04:14:02;;;;;;;23.85;15.90;;;18.90;29.00;;;;;;5012252;28;20096;-66
2023/02/08 04:16:29;;;;;;;26.33;16.23;;;18.90;29.00;;;;;;5012803;28;20128;-67
2023/02/08 04:18:57;;;;;;;25.25;17.20;;;18.90;29.00;;;;;;5013437;28;20038;-67
2023/02/08 04:21:24;;;;;;;26.25;16.90;;;19.00;29.10;;;;;;5012751;28;20046;-67
2023/02/08 04:23:51;;;;;;;24.83;16.48;;;18.90;29.00;;;;;;5012529;28;20052;-67
2023/02/08 04:26:18;;;;;;;23.60;15.73;;;18.90;29.00;;;;;;5012923;28;20470;-67
2023/02/08 04:28:45;;;;;;;24.35;16.23;;;18.90;29.00;;;;;;5012442;28;20046;-67
2023/02/08 04:31:12;;;;;;;25.70;16.73;;;18.90;29.00;;;;;;5012308;28;20052;-67
2023/02/08 04:33:40;;;;;;;23.48;16.35;;;18.90;29.00;;;;;;5012705;28;20042;-67
2023/02/08 04:36:08;;;;;;;24.95;16.98;;;18.90;29.00;;;;;;5009785;28;20128;-67
2023/02/08 04:38:35;;;;;;;23.55;16.10;;;18.90;29.00;;;;;;5012540;28;20548;-66
2023/02/08 04:41:03;;;;;;;27.48;16.98;;;18.90;29.00;;;;;;5012337;28;20042;-67
2023/02/08 04:43:30;;;;;;;24.80;16.13;;;18.90;29.00;;;;;;5012488;28;20096;-66
2023/02/08 04:45:57;;;;;;;25.52;16.77;;;18.90;29.40;;;;;;5012091;28;20050;-67
2023/02/08 04:48:25;;;;;;;24.65;16.02;;;18.90;29.00;;;;;;5011863;28;20452;-67
2023/02/08 04:50:57;;;;;;;25.85;15.90;;;18.90;29.00;;;;;;5025632;28;20532;-67
2023/02/08 04:53:24;;;;;;;24.90;17.10;;;18.90;29.00;;;;;;5032376;28;20042;-66
2023/02/08 04:55:52;;;;;;;23.23;15.48;;;18.90;29.00;;;;;;5032325;28;20049;-66
2023/02/08 04:58:19;;;;;;;22.63;15.68;;;18.90;29.00;;;;;;5033270;28;20406;-67
2023/02/08 05:00:46;;;;;;;24.90;15.80;;;18.90;29.00;;;;;;5025665;28;20050;-66
2023/02/08 05:03:13;;;;;;;23.90;15.60;;;18.90;29.00;;;;;;5032105;28;20052;-66
2023/02/08 05:05:41;;;;;;;25.48;16.30;;;18.90;29.00;;;;;;5032889;28;20053;-66
2023/02/08 05:08:08;;;;;;;25.17;16.08;;;18.90;29.00;;;;;;5032164;28;20057;-67
2023/02/08 05:10:35;;;;;;;27.15;16.42;;;18.90;28.90;;;;;;5031352;28;20075;-66
2023/02/08 05:13:02;;;;;;;22.67;15.50;;;18.90;28.90;;;;;;5014996;28;20524;-66
2023/02/08 05:15:29;;;;;;;24.77;15.55;;;18.90;28.90;;;;;;5014733;28;20059;-66
2023/02/08 05:17:56;;;;;;;25.10;16.20;;;18.90;29.00;;;;;;5032161;28;20045;-66
2023/02/08 05:20:23;;;;;;;25.27;15.60;;;18.90;29.00;;;;;;5031656;28;20081;-66
2023/02/08 05:22:50;;;;;;;23.25;15.88;;;18.90;29.00;;;;;;5031799;28;20045;-66
2023/02/08 05:25:18;;;;;;;25.02;16.33;;;18.90;29.00;;;;;;5022964;28;20049;-67
2023/02/08 05:27:45;;;;;;;24.33;15.85;;;19.00;29.00;;;;;;5031169;28;20107;-66
2023/02/08 05:30:12;;;;;;;22.95;15.65;;;19.00;29.00;;;;;;5012527;28;20060;-66
2023/02/08 05:32:39;;;;;;;22.58;15.20;;;19.00;29.00;;;;;;5013407;28;20155;-66
2023/02/08 05:35:06;;;;;;;24.20;16.67;;;19.00;29.00;;;;;;5011690;28;20068;-66
2023/02/08 05:37:33;;;;;;;27.27;17.23;;;19.00;28.90;;;;;;5009809;28;20054;-66
2023/02/08 05:40:01;;;;;;;26.85;18.08;;;19.00;28.70;;;;;;5009976;28;20048;-66
2023/02/08 05:42:28;;;;;;;27.17;18.38;;;19.00;28.60;;;;;;5012566;28;20056;-66
2023/02/08 05:44:55;;;;;;;29.92;18.45;;;18.90;28.50;;;;;;5011401;28;20049;-66
2023/02/08 05:47:22;;;;;;;27.05;18.13;;;18.90;28.50;;;;;;5012643;28;20076;-66
2023/02/08 05:49:49;;;;;;;27.10;18.30;;;18.90;28.50;;;;;;5011847;28;20469;-66
2023/02/08 05:52:16;;;;;;;24.45;17.17;;;18.90;28.50;;;;;;5012309;28;20460;-66
2023/02/08 05:54:43;;;;;;;26.27;17.60;;;18.90;28.60;;;;;;5012331;28;20092;-66
2023/02/08 05:57:10;;;;;;;27.65;16.77;;;18.90;28.60;;;;;;5023309;28;20050;-64
2023/02/08 05:59:37;;;;;;;24.95;17.45;;;18.80;28.60;;;;;;5003991;28;20088;-64
2023/02/08 06:02:04;;;;;;;26.23;17.48;;;18.90;28.60;;;;;;5013901;28;20042;-63
2023/02/08 06:04:32;;;;;;;26.42;16.83;;;18.90;28.60;;;;;;5009657;28;20046;-64
2023/02/08 06:06:59;;;;;;;22.40;16.55;;;18.90;28.60;;;;;;5008829;28;20056;-63
2023/02/08 06:09:26;;;;;;;32.20;18.98;;;18.90;28.60;;;;;;5008037;28;20498;-63
2023/02/08 06:11:53;;;;;;;26.52;17.20;;;18.90;28.60;;;;;;5007569;28;20038;-65
2023/02/08 06:14:20;;;;;;;24.95;16.42;;;18.90;28.60;;;;;;5008203;28;20137;-66
2023/02/08 06:16:47;;;;;;;26.77;17.15;;;18.90;28.70;;;;;;5005493;28;20311;-65
2023/02/08 06:19:14;;;;;;;25.45;17.00;;;18.90;28.70;;;;;;5003757;28;20050;-66
2023/02/08 06:21:42;;;;;;;27.60;17.50;;;19.00;28.70;;;;;;5003640;28;20050;-65
2023/02/08 06:24:10;;;;;;;31.10;18.23;;;19.00;28.80;;;;;;5008107;28;20050;-62
2023/02/08 06:26:38;;;;;;;29.35;17.88;;;19.00;28.70;;;;;;5011515;28;20052;-65
2023/02/08 06:29:05;;;;;;;27.25;17.30;;;19.10;28.80;;;;;;5013186;28;20081;-61
2023/02/08 06:31:33;;;;;;;26.95;17.92;;;19.00;28.80;;;;;;5016892;28;20049;-61
2023/02/08 06:34:00;;;;;;;27.35;17.92;;;19.10;28.90;;;;;;5012951;28;20093;-61
2023/02/08 06:36:27;;;;;;;30.90;20.38;;;19.20;29.00;;;;;;5015175;28;20054;-64
2023/02/08 06:38:55;;;;;;;26.73;18.20;;;19.20;29.00;;;;;;5009969;28;20080;-61
2023/02/08 06:41:22;;;;;;;33.38;18.15;;;19.20;29.00;;;;;;5005560;28;20505;-61
2023/02/08 06:43:49;;;;;;;28.05;18.80;;;19.20;29.00;;;;;;4986220;28;20061;-61
2023/02/08 06:46:17;;;;;;;28.98;18.55;;;19.30;29.00;;;;;;5002788;28;20108;-62
2023/02/08 06:48:44;;;;;;;30.90;19.65;;;19.30;29.00;;;;;;5008285;28;20065;-64
2023/02/08 06:51:12;;;;;;;27.67;17.67;;;19.30;29.00;;;;;;5002425;28;20470;-65
2023/02/08 06:53:39;;;;;;;28.85;18.85;;;19.40;29.40;;;;;;5006310;28;20054;-67
2023/02/08 06:56:06;;;;;;;29.33;19.23;;;19.40;29.60;;;;;;5007701;28;20053;-62
2023/02/08 06:58:34;;;;;;;31.67;19.83;;;19.50;29.80;;;;;;5011186;28;20053;-63
2023/02/08 07:01:01;;;;;;;29.25;19.15;;;19.60;29.90;;;;;;5005860;28;20075;-61
2023/02/08 07:03:29;;;;;;;27.75;18.88;;;19.60;30.00;;;;;;5004632;28;20157;-63
2023/02/08 07:05:56;;;;;;;31.25;19.55;;;19.60;30.10;;;;;;4996300;28;20514;-61
2023/02/08 07:08:32;;;;;;;32.47;20.90;;;19.70;30.10;;;;;;5001147;28;20053;-67
2023/02/08 07:11:04;;;;;;;34.42;22.27;;;19.70;30.00;;;;;;4967097;28;20058;-67
2023/02/08 07:13:32;;;;;;;32.97;22.05;;;19.80;29.80;;;;;;5000839;28;20053;-67
2023/02/08 07:15:59;;;;;;;35.35;23.05;;;19.80;29.80;;;;;;5006856;28;20085;-67
2023/02/08 07:18:26;;;;;;;31.77;20.92;;;19.90;29.80;;;;;;5004867;28;20205;-67
2023/02/08 07:20:53;;;;;;;34.35;20.75;;;19.90;29.90;;;;;;5006156;28;20084;-67
2023/02/08 07:23:21;;;;;;;34.78;21.33;;;19.90;30.00;;;;;;4975572;28;20050;-68
2023/02/08 07:26:00;;;;;;;34.40;21.88;;;20.00;30.10;;;;;;5005972;28;20595;-67
2023/02/08 07:28:28;;;;;;;30.05;19.90;;;20.10;30.10;;;;;;5006050;28;20489;-69
2023/02/08 07:30:55;;;;;;;33.85;21.00;;;20.10;30.00;;;;;;5003167;28;20157;-67
2023/02/08 07:33:24;;;;;;;33.25;20.88;;;20.20;30.00;;;;;;5002541;28;20125;-68
2023/02/08 07:35:51;;;;;;;32.30;21.17;;;20.20;30.10;;;;;;4989353;28;20054;-66
2023/02/08 07:38:19;;;;;;;36.90;21.95;;;20.30;30.10;;;;;;4998787;28;20413;-67
2023/02/08 07:40:47;;;;;;;35.50;22.02;;;20.40;30.00;;;;;;4997053;28;20502;-66
2023/02/08 07:43:14;;;;;;;32.95;22.00;;;20.40;30.00;;;;;;5003032;28;20051;-66
2023/02/08 07:45:41;;;;;;;36.10;22.80;;;20.50;30.10;;;;;;5002676;28;20050;-65
2023/02/08 07:48:09;;;;;;;35.40;21.83;;;20.50;30.30;;;;;;5000946;28;20056;-66
2023/02/08 07:50:36;;;;;;;42.70;23.40;;;20.60;30.30;;;;;;5004028;28;20185;-65
2023/02/08 07:53:03;;;;;;;34.05;21.58;;;20.60;30.20;;;;;;5000422;28;20046;-67
2023/02/08 07:55:30;;;;;;;41.53;23.48;;;20.70;30.20;;;;;;4998969;28;20498;-68
2023/02/08 07:57:58;;;;;;;32.88;22.25;;;20.70;30.00;;;;;;5002067;28;20054;-71
2023/02/08 08:00:25;;;;;;;33.70;21.50;;;20.80;29.90;;;;;;5005224;28;20052;-70
2023/02/08 08:02:53;;;;;;;30.85;21.10;;;20.80;29.80;;;;;;5005275;28;20080;-69
2023/02/08 08:05:20;;;;;;;33.90;22.35;;;20.80;29.70;;;;;;5004455;28;20050;-69
2023/02/08 08:07:47;;;;;;;34.30;21.98;;;20.90;29.60;;;;;;5001735;28;20060;-69
2023/02/08 08:10:14;;;;;;;31.63;21.67;;;20.90;29.40;;;;;;5002839;28;20072;-69
2023/02/08 08:12:42;;;;;;;32.72;22.50;;;20.90;29.30;;;;;;5002906;28;20133;-66
2023/02/08 08:15:09;;;;;;;34.47;23.05;;;20.90;29.70;;;;;;4999005;28;20064;-70
2023/02/08 08:17:38;;;;;;;28.95;20.98;;;21.00;29.20;;;;;;5004580;28;20081;-69
2023/02/08 08:20:05;;;;;;;35.40;21.85;;;21.00;29.20;;;;;;4987906;28;20199;-69
2023/02/08 08:22:32;;;;;;;32.00;20.95;;;21.00;29.20;;;;;;5002587;28;20054;-67
2023/02/08 08:24:59;;;;;;;31.50;21.55;;;21.00;29.30;;;;;;4988517;28;20049;-68
2023/02/08 08:27:27;;;;;;;32.05;21.30;;;21.10;29.30;;;;;;4998461;28;20073;-68
2023/02/08 08:29:54;;;;;;;31.88;20.70;;;21.10;29.40;;;;;;5004263;28;20054;-68
2023/02/08 08:32:21;;;;;;;33.30;20.88;;;21.20;29.40;;;;;;5004750;28;20057;-68
2023/02/08 08:34:48;;;;;;;33.92;21.52;;;21.20;29.40;;;;;;5006036;28;20050;-72
2023/02/08 08:37:15;;;;;;;34.10;21.23;;;21.20;29.40;;;;;;5006126;28;20133;-68
2023/02/08 08:39:43;;;;;;;32.83;21.70;;;21.30;29.60;;;;;;5001782;28;20061;-67
2023/02/08 08:42:11;;;;;;;27.60;19.33;;;21.30;29.50;;;;;;5001704;28;20049;-67
2023/02/08 08:44:38;;;;;;;32.22;19.98;;;21.30;29.40;;;;;;5002754;28;20049;-67
2023/02/08 08:47:08;;;;;;;31.25;20.02;;;21.30;29.30;;;;;;5008137;28;21243;-67
2023/02/08 08:49:35;;;;;;;31.52;20.20;;;21.30;29.20;;;;;;5008375;28;20139;-68
2023/02/08 08:52:05;;;;;;;30.80;21.40;;;21.40;29.10;;;;;;5006063;28;20160;-68
2023/02/08 08:54:32;;;;;;;26.67;18.83;;;21.40;29.10;;;;;;5000587;28;20066;-67
2023/02/08 08:57:00;;;;;;;27.48;18.70;;;21.40;29.00;;;;;;4984329;28;20046;-68
2023/02/08 08:59:27;;;;;;;30.60;19.85;;;21.50;29.00;;;;;;5007214;28;20050;-67
2023/02/08 09:01:54;;;;;;;30.73;19.58;;;21.50;28.90;;;;;;5002443;28;20128;-68
2023/02/08 09:04:21;;;;;;;30.83;18.77;;;21.50;28.90;;;;;;5002045;28;20064;-68
2023/02/08 09:06:49;;;;;;;27.75;19.58;;;21.50;28.90;;;;;;5003652;28;20045;-68
2023/02/08 09:09:18;;;;;;;31.75;19.52;;;21.60;28.90;;;;;;5004187;28;20042;-69
2023/02/08 09:11:46;;;;;;;28.33;18.42;;;21.60;28.90;;;;;;5001358;28;20073;-68
2023/02/08 09:14:14;;;;;;;27.95;18.92;;;21.60;28.80;;;;;;5003598;28;20054;-68
2023/02/08 09:16:46;;;;;;;29.35;18.05;;;21.70;28.80;;;;;;4982003;28;20054;-69
2023/02/08 09:19:14;;;;;;;26.95;18.10;;;21.70;28.80;;;;;;5003257;28;20567;-69
2023/02/08 09:21:42;;;;;;;26.50;18.30;;;21.80;28.70;;;;;;5002815;28;20058;-69
2023/02/08 09:24:09;;;;;;;25.00;17.23;;;21.80;28.80;;;;;;5005469;28;20108;-67
2023/02/08 09:26:37;;;;;;;22.35;15.82;;;21.80;29.10;;;;;;5002656;28;20145;-71
2023/02/08 09:29:05;;;;;;;26.42;17.92;;;21.90;29.40;;;;;;5001296;28;20046;-69
2023/02/08 09:31:36;;;;;;;24.98;16.33;;;21.90;29.40;;;;;;5003528;28;20053;-65
2023/02/08 09:34:05;;;;;;;26.83;16.13;;;21.90;29.30;;;;;;5005320;28;20052;-69
2023/02/08 09:36:35;;;;;;;23.40;16.15;;;22.00;29.40;;;;;;4984326;28;20078;-66
2023/02/08 09:39:08;;;;;;;;;;;22.00;29.40;;;;;;4994087;28;20052;-66
2023/02/08 09:42:15;;;;;;;26.08;16.40;;;22.00;29.40;;;;;;5005572;28;19934;-66
2023/02/08 09:45:21;;;;;;;27.10;15.77;;;22.00;29.40;;;;;;5004423;28;20108;-69
2023/02/08 09:47:59;;;;;;;21.95;15.75;;;22.10;29.40;;;;;;5002689;28;20565;-65
2023/02/08 09:50:38;;;;;;;23.00;15.02;;;22.10;29.40;;;;;;5003550;28;20450;-65
2023/02/08 09:53:29;;;;;;;21.42;15.07;;;22.20;29.50;;;;;;5000607;28;20477;-67
2023/02/08 09:55:59;;;;;;;24.45;17.20;;;22.20;29.40;;;;;;5004550;28;20060;-66
2023/02/08 09:58:43;;;;;;;26.52;16.10;;;22.20;29.30;;;;;;4992355;28;20100;-67
2023/02/08 10:01:28;;;;;;;30.05;18.02;;;22.20;29.60;;;;;;5002538;28;20050;-68
2023/02/08 10:04:19;;;;;;;25.45;15.55;;;22.20;29.10;;;;;;5007510;28;20116;-67
2023/02/08 10:06:46;;;;;;;25.08;15.88;;;22.20;29.20;;;;;;5008866;28;20060;-68
2023/02/08 10:09:21;;;;;;;23.98;14.50;;;22.30;29.20;;;;;;5008229;28;20434;-67
2023/02/08 10:12:23;;;;;;;22.13;14.15;;;22.30;29.40;;;;;;5008289;28;20510;-66
2023/02/08 10:15:22;;;;;;;23.13;14.13;;;22.30;28.90;;;;;;4996475;28;20049;-66
2023/02/08 10:18:17;;;;;;;19.67;13.35;;;22.30;28.90;;;;;;5006087;28;20054;-69
2023/02/08 10:21:14;;;;;;;19.15;13.50;;;22.30;29.00;;;;;;4991108;28;21851;-64
2023/02/08 10:24:18;;;;;;;19.05;13.23;;;22.40;29.60;;;;;;5011736;28;20046;-66
2023/02/08 10:27:09;;;;;;;18.38;12.85;;;22.40;29.20;;;;;;4999865;28;20421;-66
2023/02/08 10:30:14;;;;;;;19.00;12.75;;;22.40;29.20;;;;;;5007120;28;20046;-65
2023/02/08 10:32:53;;;;;;;17.55;12.30;;;22.50;29.00;;;;;;5008807;28;20053;-65
2023/02/08 10:35:35;;;;;;;20.33;12.53;;;22.50;28.70;;;;;;4997805;28;20053;-65
2023/02/08 10:38:22;;;;;;;17.63;11.60;;;22.60;28.90;;;;;;5007255;28;20041;-66
2023/02/08 10:41:03;;;;;;;15.30;11.20;;;22.60;29.10;;;;;;5007545;28;20046;-67
2023/02/08 10:43:40;;;;;;;17.00;11.98;;;22.60;29.00;;;;;;5008175;28;20061;-64
2023/02/08 10:46:19;;;;;;;16.13;11.07;;;22.70;29.00;;;;;;5006030;28;20046;-64
2023/02/08 10:49:13;;;;;;;20.45;12.48;;;22.70;28.90;;;;;;5009423;28;20049;-64
2023/02/08 10:51:40;;;;;;;18.05;12.30;;;22.70;28.90;;;;;;5008169;28;20264;-65
2023/02/08 10:54:12;;;;;;;15.18;11.30;;;22.70;28.80;;;;;;5006998;28;20049;-67
2023/02/08 10:56:56;;;;;;;16.48;11.18;;;22.80;29.00;;;;;;5007764;28;20054;-65
2023/02/08 10:59:35;;;;;;;17.25;11.35;;;22.80;29.00;;;;;;4999113;28;20493;-65
2023/02/08 11:02:22;;;;;;;18.98;10.85;;;22.80;29.00;;;;;;4991498;28;20451;-65
2023/02/08 11:05:05;;;;;;;15.45;11.23;;;22.80;29.00;;;;;;5006446;28;20227;-67
2023/02/08 11:07:33;;;;;;;17.23;10.85;;;22.80;28.60;;;;;;5008513;28;20092;-65
2023/02/08 11:10:22;;;;;;;15.10;10.50;;;22.90;28.40;;;;;;5008705;28;20049;-66
2023/02/08 11:13:05;;;;;;;13.05;9.73;;;23.00;28.40;;;;;;5009571;28;20464;-65
2023/02/08 11:15:42;;;;;;;16.33;9.85;;;23.00;28.20;;;;;;5003045;28;20046;-66
2023/02/08 11:18:38;;;;;;;13.80;10.30;;;23.00;28.20;;;;;;5010495;28;20049;-63
2023/02/08 11:21:10;;;;;;;14.85;10.30;;;23.00;28.10;;;;;;5010081;28;20510;-64
2023/02/08 11:23:41;;;;;;;16.83;10.05;;;22.90;28.20;;;;;;5006984;28;20041;-64
2023/02/08 11:26:32;;;;;;;14.50;9.80;;;22.90;28.30;;;;;;5007963;28;20496;-64
2023/02/08 11:29:21;;;;;;;16.65;11.90;;;22.90;28.40;;;;;;5007580;28;20046;-66
2023/02/08 11:32:01;;;;;;;16.42;10.32;;;22.80;28.30;;;;;;4991129;28;20074;-65
2023/02/08 11:34:37;;;;;;;16.02;10.48;;;22.80;28.30;;;;;;4990449;28;20495;-65
2023/02/08 11:37:24;;;;;;;15.93;11.52;;;22.80;28.30;;;;;;5007053;28;20085;-65
2023/02/08 11:39:55;;;;;;;14.90;10.20;;;22.80;28.30;;;;;;5005594;28;20053;-65
2023/02/08 11:42:36;;;;;;;17.05;10.82;;;22.80;28.30;;;;;;5006890;28;20089;-65
2023/02/08 11:45:04;;;;;;;15.10;10.07;;;22.80;28.30;;;;;;5006355;28;20128;-66
2023/02/08 11:47:34;;;;;;;13.10;9.77;;;22.80;28.30;;;;;;5006425;28;20397;-64
2023/02/08 11:50:04;;;;;;;14.35;10.55;;;22.80;28.30;;;;;;5006857;28;20045;-65
2023/02/08 11:52:34;;;;;;;;;;;22.80;28.20;;;;;;5005517;28;20525;-65
2023/02/08 11:55:23;;;;;;;14.43;9.65;;;22.80;28.10;;;;;;5005940;28;19921;-65
2023/02/08 11:58:01;;;;;;;15.30;10.00;;;22.80;28.20;;;;;;5002733;28;20077;-67
2023/02/08 12:00:37;;;;;;;12.55;9.23;;;22.90;28.20;;;;;;5002875;28;20125;-66
2023/02/08 12:03:17;;;;;;;15.38;10.00;;;22.90;28.10;;;;;;4990673;28;20089;-66
2023/02/08 12:06:03;;;;;;;16.30;10.10;;;22.90;28.10;;;;;;5002475;28;20395;-65
2023/02/08 12:08:45;;;;;;;14.50;10.40;;;23.00;28.20;;;;;;5007973;28;20061;-66
2023/02/08 12:11:43;;;;;;;14.07;9.90;;;23.00;28.10;;;;;;5007683;28;20542;-65
2023/02/08 12:14:36;;;;;;;14.48;10.05;;;23.00;28.10;;;;;;5007453;28;20060;-64
2023/02/08 12:17:32;;;;;;;15.95;9.75;;;23.00;28.10;;;;;;5006874;28;20490;-64
2023/02/08 12:20:39;;;;;;;13.43;9.98;;;23.10;28.00;;;;;;5005232;28;20133;-65
2023/02/08 12:23:37;;;;;;;13.75;9.38;;;23.10;27.80;;;;;;4984045;28;20049;-65
2023/02/08 12:26:32;;;;;;;14.40;9.43;;;23.20;27.80;;;;;;4996909;28;20516;-65
2023/02/08 12:29:26;;;;;;;15.18;9.60;;;23.30;27.90;;;;;;5008239;28;20437;-64
2023/02/08 12:32:44;;;;;;;12.68;8.90;;;23.30;27.70;;;;;;5007774;28;20544;-64
2023/02/08 12:35:45;;;;;;;13.90;9.02;;;23.40;27.70;;;;;;4993296;28;20060;-64
2023/02/08 12:42:23;;;;;;;13.52;9.70;;;23.40;28.30;;;;;;4974917;28;20057;-64
2023/02/08 12:45:13;;;;;;;14.98;9.35;;;23.50;28.60;;;;;;4985795;28;20057;-66
2023/02/08 12:48:13;;;;;;;12.80;9.00;;;23.50;28.60;;;;;;4980370;28;20058;-66
2023/02/08 12:51:07;;;;;;;15.30;9.00;;;23.50;28.60;;;;;;4984497;28;20137;-67
2023/02/08 12:53:41;;;;;;;12.15;8.43;;;23.50;28.60;;;;;;4971083;28;20093;-66
2023/02/08 12:56:24;;;;;;;14.82;8.32;;;23.50;28.70;;;;;;4982759;28;20050;-65
2023/02/08 12:58:54;;;;;;;11.40;7.93;;;23.60;28.70;;;;;;4986282;28;20419;-66
2023/02/08 13:01:43;;;;;;;13.30;8.18;;;23.60;28.70;;;;;;4982669;28;20506;-65
2023/02/08 13:04:18;;;;;;;11.50;7.72;;;23.60;28.60;;;;;;4983576;28;20050;-68
2023/02/08 13:06:50;;;;;;;14.35;7.97;;;23.60;28.60;;;;;;4967518;28;20154;-66
2023/02/08 13:09:40;;;;;;;11.35;7.65;;;23.60;28.60;;;;;;4983206;28;20054;-65